Freeman, Washington
Current Conditions -  °F | °C
As of 5:02 AM on Thursday 18 Dec 2014 (Local Time) from KSFF Reporting Station
Haze Haze  
Wind Chill: 37°   Ceiling: 1300
Heat Index: 37°   Visibility: 5mi
Dew Point: 34°   Wind: 0mph
Humidity: 89%   Direction: NA
Pressure: 29.99"   Gusts: NA
Location:  47.52°N, 117.2°W
Report Text: KSFF 181302Z AUTO 00000KT 5SM BR OVC013 03/01 A2999 RMK AO2 T00280011
Loading
Personal Weather Stations






























Interactive Weather Map New forecast layout! Learn more

10-Day Weather Forecast

Advertisements
Track Severe Weather on mobile